Daikoku — JD3247 — position and weather

sailwx.info

Track history (hours):
 
Tides and Currents Weather Stations Pressure Air Temp Water Temp Dewpoint Dewpoint Depression Visibility Wind Speed Wind Dir Waves Ship Positions

Daikoku

Last reported at 2016-Dec-23 04:33 UTC. Time now 2017-Jan-18 10:06 UTC.
Position N 34°36' E 135°06'.
Warning: this ship's position is 26 days out of date.

Length 95 m; draft 4.1 m.

Type: Cargo ship. MMSI: 431003009.

Date/timePositionNaut miles runAvg speedWind from/ knotsBaromVisibWave heightAir tempDewpointWater temp
2016-Dec-23 04:33N 34°36' E 135°06'10 9.9
2016-Dec-23 03:33N 34°39' E 135°18'3 3.1
2016-Dec-23 02:33N 34°42' E 135°19'1 1.1
2016-Dec-23 01:33N 34°41' E 135°18'2 2.5
2016-Dec-23 00:33N 34°40' E 135°15'1 1.2
2016-Dec-22 23:33N 34°39' E 135°15'3 2.5
2016-Dec-22 22:33N 34°37' E 135°16'0 0.0
2016-Dec-22 21:33N 34°37' E 135°16'4 3.5
2016-Dec-22 20:33N 34°36' E 135°12'1111.0
2016-Dec-22 19:31N 34°37' E 134°58'  
2016-Dec-16 07:19N 34°37' E 135°01'7 9.6
2016-Dec-16 06:33N 34°36' E 135°10'7 7.1
2016-Dec-16 05:33N 34°41' E 135°17'1 1.2
2016-Dec-16 04:33N 34°40' E 135°18'2 1.5
2016-Dec-16 03:31N 34°39' E 135°19'1 0.6
2016-Dec-16 02:33N 34°39' E 135°18'3 2.9
2016-Dec-16 01:29N 34°39' E 135°15'1 0.6
2016-Dec-16 00:33N 34°40' E 135°15'3 2.8
2016-Dec-15 23:30N 34°37' E 135°15'0 0.0
2016-Dec-15 22:30N 34°37' E 135°15'0 0.0
2016-Dec-15 21:12N 34°37' E 135°15'0 0.1
2016-Dec-15 20:30N 34°37' E 135°15'2 1.7
2016-Dec-15 19:33N 34°35' E 135°14'1414.2
2016-Dec-15 18:33N 34°36' E 134°57'4 0.1
2016-Dec-14 08:20N 34°37' E 135°01'911.4
2016-Dec-14 07:34N 34°37' E 135°12'3 2.9
2016-Dec-14 06:26N 34°39' E 135°15'2 2.0
2016-Dec-14 05:33N 34°38' E 135°16'2 1.7
2016-Dec-14 04:29N 34°39' E 135°15'2 1.9
2016-Dec-14 03:33N 34°38' E 135°17'2 2.3
2016-Dec-14 02:31N 34°41' E 135°17'0 0.0
2016-Dec-14 01:31N 34°41' E 135°17'0 0.0
2016-Dec-14 00:25N 34°41' E 135°17'1 1.3
2016-Dec-13 23:33N 34°40' E 135°15'4 3.2
2016-Dec-13 22:24N 34°37' E 135°15'0 0.1
2016-Dec-13 21:30N 34°37' E 135°15'0 0.0
2016-Dec-13 20:24N 34°37' E 135°15'0 0.1
2016-Dec-13 19:30N 34°37' E 135°15'0 0.0
2016-Dec-13 18:30N 34°37' E 135°15'0 0.1
2016-Dec-13 17:30N 34°37' E 135°15'2 1.7
2016-Dec-13 16:33N 34°36' E 135°14'1413.5
2016-Dec-13 15:32N 34°36' E 134°57'  
Track history (hours):
 
Tides and Currents Weather Stations Pressure Air Temp Water Temp Dewpoint Dewpoint Depression Visibility Wind Speed Wind Dir Waves Ship Positions

Daikoku

Last reported at 2016-Dec-23 04:33 UTC. Time now 2017-Jan-18 10:06 UTC.
Position N 34°36' E 135°06'.
Warning: this ship's position is 26 days out of date.

Length 95 m; draft 4.1 m.

Type: Cargo ship. MMSI: 431003009.

Date/timePositionNaut miles runAvg speedWind from/ knotsBaromVisibWave heightAir tempDewpointWater temp
2016-Dec-23 04:33N 34°36' E 135°06'10 9.9
2016-Dec-23 03:33N 34°39' E 135°18'3 3.1
2016-Dec-23 02:33N 34°42' E 135°19'1 1.1
2016-Dec-23 01:33N 34°41' E 135°18'2 2.5
2016-Dec-23 00:33N 34°40' E 135°15'1 1.2
2016-Dec-22 23:33N 34°39' E 135°15'3 2.5
2016-Dec-22 22:33N 34°37' E 135°16'0 0.0
2016-Dec-22 21:33N 34°37' E 135°16'4 3.5
2016-Dec-22 20:33N 34°36' E 135°12'1111.0
2016-Dec-22 19:31N 34°37' E 134°58'  
2016-Dec-16 07:19N 34°37' E 135°01'7 9.6
2016-Dec-16 06:33N 34°36' E 135°10'7 7.1
2016-Dec-16 05:33N 34°41' E 135°17'1 1.2
2016-Dec-16 04:33N 34°40' E 135°18'2 1.5
2016-Dec-16 03:31N 34°39' E 135°19'1 0.6
2016-Dec-16 02:33N 34°39' E 135°18'3 2.9
2016-Dec-16 01:29N 34°39' E 135°15'1 0.6
2016-Dec-16 00:33N 34°40' E 135°15'3 2.8
2016-Dec-15 23:30N 34°37' E 135°15'0 0.0
2016-Dec-15 22:30N 34°37' E 135°15'0 0.0
2016-Dec-15 21:12N 34°37' E 135°15'0 0.1
2016-Dec-15 20:30N 34°37' E 135°15'2 1.7
2016-Dec-15 19:33N 34°35' E 135°14'1414.2
2016-Dec-15 18:33N 34°36' E 134°57'4 0.1
2016-Dec-14 08:20N 34°37' E 135°01'911.4
2016-Dec-14 07:34N 34°37' E 135°12'3 2.9
2016-Dec-14 06:26N 34°39' E 135°15'2 2.0
2016-Dec-14 05:33N 34°38' E 135°16'2 1.7
2016-Dec-14 04:29N 34°39' E 135°15'2 1.9
2016-Dec-14 03:33N 34°38' E 135°17'2 2.3
2016-Dec-14 02:31N 34°41' E 135°17'0 0.0
2016-Dec-14 01:31N 34°41' E 135°17'0 0.0
2016-Dec-14 00:25N 34°41' E 135°17'1 1.3
2016-Dec-13 23:33N 34°40' E 135°15'4 3.2
2016-Dec-13 22:24N 34°37' E 135°15'0 0.1
2016-Dec-13 21:30N 34°37' E 135°15'0 0.0
2016-Dec-13 20:24N 34°37' E 135°15'0 0.1
2016-Dec-13 19:30N 34°37' E 135°15'0 0.0
2016-Dec-13 18:30N 34°37' E 135°15'0 0.1
2016-Dec-13 17:30N 34°37' E 135°15'2 1.7
2016-Dec-13 16:33N 34°36' E 135°14'1413.5
2016-Dec-13 15:32N 34°36' E 134°57'  

Dump ship's entire track history